Time;durP1;ratioP1;P1;durP2;ratioP2;P2;SDS_P1;SDS_P2;PMS_P1;PMS_P2;Temp;Humidity;BMP_temperature;BMP_pressure;BME280_temperature;BME280_humidity;BME280_pressure;Samples;Min_cycle;Max_cycle;Signal;HPM_P1;HPM_P2
2022/09/09 00:00:15;;;;;;;2.80;1.17;;;;;;;15.12;100.00;96162.13;5041733;27;102941;-60
2022/09/09 00:02:47;;;;;;;2.03;1.10;;;;;;;15.08;100.00;96154.91;5051363;27;105638;-60
2022/09/09 00:05:26;;;;;;;0.97;0.90;;;;;;;15.10;100.00;96145.50;5056282;27;101874;-60
2022/09/09 00:07:56;;;;;;;1.13;1.00;;;;;;;15.12;100.00;96145.22;5050725;27;105648;-60
2022/09/09 00:10:29;;;;;;;1.10;1.00;;;;;;;15.10;100.00;96152.75;5045762;27;101915;-60
2022/09/09 00:13:06;;;;;;;1.37;1.10;;;;;;;15.09;100.00;96154.63;5031301;28;105509;-60
2022/09/09 00:15:56;;;;;;;1.10;1.10;;;;;;;14.98;100.00;96155.81;5033353;27;103108;-60
2022/09/09 00:18:29;;;;;;;1.20;0.80;;;;;;;14.97;100.00;96158.78;5048295;27;101710;-60
2022/09/09 00:21:04;;;;;;;0.90;0.90;;;;;;;14.99;100.00;96148.59;5037696;27;102884;-60
2022/09/09 00:23:36;;;;;;;1.20;1.10;;;;;;;15.00;100.00;96142.16;5030490;28;105521;-60
2022/09/09 00:26:30;;;;;;;1.17;1.10;;;;;;;15.07;100.00;96145.28;5035813;27;101678;-60
2022/09/09 00:29:06;;;;;;;1.20;0.90;;;;;;;15.02;100.00;96145.34;5010479;28;105370;-60
2022/09/09 00:31:33;;;;;;;0.87;0.87;;;;;;;14.99;100.00;96149.38;5039974;27;102044;-60
2022/09/09 00:34:10;;;;;;;1.00;1.00;;;;;;;15.07;100.00;96151.44;5012478;28;102917;-60
2022/09/09 00:37:01;;;;;;;1.10;1.10;;;;;;;15.11;100.00;96154.34;5048988;27;105341;-60
2022/09/09 00:39:33;;;;;;;1.00;1.00;;;;;;;15.08;100.00;96154.91;5049802;27;102110;-60
2022/09/09 00:42:15;;;;;;;2.50;1.10;;;;;;;15.07;100.00;96161.34;5032554;28;102332;-60
2022/09/09 00:44:53;;;;;;;1.93;1.10;;;;;;;15.08;100.00;96163.75;5035653;27;105409;-60
2022/09/09 00:47:45;;;;;;;1.90;0.97;;;;;;;15.16;100.00;96154.31;5051111;27;101835;-60
2022/09/09 00:51:00;;;;;;;2.37;0.90;;;;;;;15.21;100.00;96149.69;5049356;27;105550;-60
2022/09/09 00:53:37;;;;;;;1.53;1.00;;;;;;;15.21;100.00;96146.22;5050975;27;102300;-60
2022/09/09 00:56:25;;;;;;;0.70;0.70;;;;;;;15.30;100.00;96139.13;5049212;27;103699;-60
2022/09/09 00:59:01;;;;;;;0.87;0.87;;;;;;;15.33;100.00;96138.59;5052083;27;102585;-60
2022/09/09 01:01:28;;;;;;;1.00;1.00;;;;;;;15.28;100.00;96143.97;5050722;27;101837;-60
2022/09/09 01:03:59;;;;;;;1.80;1.10;;;;;;;15.29;100.00;96161.66;5048982;27;105051;-60
2022/09/09 01:06:57;;;;;;;1.10;1.00;;;;;;;15.32;100.00;96163.78;5049733;27;105519;-60
2022/09/09 01:09:29;;;;;;;1.47;1.00;;;;;;;15.38;100.00;96155.41;5049975;27;102074;-60
2022/09/09 01:12:03;;;;;;;1.23;0.90;;;;;;;15.44;100.00;96154.28;5050637;27;105605;-60
2022/09/09 01:14:42;;;;;;;3.17;0.90;;;;;;;15.43;100.00;96157.25;5044797;27;104158;-60
2022/09/09 01:17:15;;;;;;;0.90;0.90;;;;;;;15.46;100.00;96154.78;5030540;28;105426;-60
2022/09/09 01:20:05;;;;;;;3.10;0.90;;;;;;;15.47;100.00;96158.28;5029885;27;103785;-60
2022/09/09 01:22:46;;;;;;;0.80;0.80;;;;;;;15.51;100.00;96153.91;5030286;28;101916;-60
2022/09/09 01:25:23;;;;;;;0.90;0.80;;;;;;;15.53;100.00;96157.13;5045545;27;102583;-60
2022/09/09 01:28:06;;;;;;;0.83;0.70;;;;;;;15.46;100.00;96153.97;5049894;27;105028;-60
2022/09/09 01:30:35;;;;;;;1.57;0.70;;;;;;;15.46;100.00;96159.34;5050238;27;102043;-60
2022/09/09 01:33:03;;;;;;;1.87;0.70;;;;;;;15.43;100.00;96165.28;5038767;27;104923;-60
2022/09/09 01:35:54;;;;;;;1.83;0.77;;;;;;;15.43;100.00;96173.31;5029645;27;105486;-60
2022/09/09 01:38:23;;;;;;;0.67;0.60;;;;;;;15.44;100.00;96175.72;5049049;27;102008;-60
2022/09/09 01:40:53;;;;;;;0.70;0.70;;;;;;;15.39;100.00;96177.66;5049710;27;105493;-60
2022/09/09 01:43:28;;;;;;;0.97;0.57;;;;;;;15.43;100.00;96184.03;5049856;27;101878;-60
2022/09/09 01:46:39;;;;;;;0.77;0.77;;;;;;;15.33;100.00;96189.50;5030400;27;105363;-60
2022/09/09 01:49:13;;;;;;;0.67;0.67;;;;;;;15.30;100.00;96182.00;5029380;28;105841;-60
2022/09/09 01:51:43;;;;;;;2.90;0.80;;;;;;;15.24;100.00;96186.63;5032053;27;101890;-60
2022/09/09 01:54:13;;;;;;;1.03;0.83;;;;;;;15.20;100.00;96190.94;5035035;27;105339;-60
2022/09/09 01:57:01;;;;;;;1.77;0.80;;;;;;;15.17;100.00;96193.41;5047583;27;103411;-60
2022/09/09 01:59:58;;;;;;;2.73;0.70;;;;;;;15.04;100.00;96186.81;5029896;28;101880;-60
2022/09/09 02:02:31;;;;;;;2.57;0.80;;;;;;;14.95;100.00;96183.19;5032656;28;104904;-60
2022/09/09 02:05:19;;;;;;;0.73;0.73;;;;;;;14.97;100.00;96185.56;5041700;27;102243;-60
2022/09/09 02:07:49;;;;;;;1.93;0.97;;;;;;;14.98;100.00;96184.50;5049993;27;104509;-60
2022/09/09 02:10:33;;;;;;;1.43;0.83;;;;;;;14.96;100.00;96184.78;5049330;27;105805;-60
2022/09/09 02:13:15;;;;;;;1.70;0.80;;;;;;;14.98;100.00;96187.94;5049276;27;101872;-60
2022/09/09 02:15:49;;;;;;;0.73;0.73;;;;;;;15.02;100.00;96189.00;5048870;27;105435;-60
2022/09/09 02:18:22;;;;;;;1.00;1.00;;;;;;;14.99;100.00;96186.88;5049212;27;105509;-60
2022/09/09 02:21:39;;;;;;;0.70;0.70;;;;;;;14.99;100.00;96184.19;5049462;27;101984;-60
2022/09/09 02:24:10;;;;;;;0.90;0.90;;;;;;;15.03;100.00;96187.09;5047442;27;102205;-60
2022/09/09 02:26:45;;;;;;;0.70;0.70;;;;;;;14.98;100.00;96177.25;5032165;28;104993;-60
2022/09/09 02:29:19;;;;;;;1.00;0.70;;;;;;;14.93;100.00;96188.00;5043275;27;104658;-60
2022/09/09 02:31:50;;;;;;;1.53;0.83;;;;;;;14.88;100.00;96190.72;5049021;27;105919;-60
2022/09/09 02:34:24;;;;;;;1.30;0.90;;;;;;;14.86;100.00;96176.00;5047724;27;101977;-60
2022/09/09 02:36:55;;;;;;;1.53;0.80;;;;;;;14.87;100.00;96175.75;5050788;27;102312;-60
2022/09/09 02:39:22;;;;;;;0.70;0.70;;;;;;;14.85;100.00;96179.78;5047277;27;105691;-60
2022/09/09 02:41:51;;;;;;;1.27;0.90;;;;;;;14.80;100.00;96177.97;5050922;27;101829;-60
2022/09/09 02:44:19;;;;;;;1.77;0.80;;;;;;;14.82;100.00;96177.69;5034828;27;103942;-60
2022/09/09 02:47:19;;;;;;;0.90;0.90;;;;;;;14.85;100.00;96177.91;5031977;28;105524;-60
2022/09/09 02:49:57;;;;;;;0.90;0.90;;;;;;;14.87;100.00;96181.09;5028877;27;105022;-60
2022/09/09 02:52:31;;;;;;;1.53;0.87;;;;;;;14.87;100.00;96181.09;5028360;28;105737;-60
2022/09/09 02:55:07;;;;;;;3.80;0.90;;;;;;;14.87;100.00;96181.09;5029185;27;102073;-60
2022/09/09 02:57:42;;;;;;;1.97;0.97;;;;;;;14.92;100.00;96183.72;5030425;27;102481;-60
2022/09/09 03:00:10;;;;;;;1.70;0.80;;;;;;;14.92;100.00;96182.91;5028427;28;104131;-60
2022/09/09 03:02:40;;;;;;;0.90;0.90;;;;;;;14.88;100.00;96173.88;5044917;27;101854;-60
2022/09/09 03:05:08;;;;;;;1.67;0.80;;;;;;;14.91;100.00;96175.97;5049017;27;105332;-60
2022/09/09 03:07:35;;;;;;;1.37;0.83;;;;;;;14.91;100.00;96171.44;5049438;27;103037;-60
2022/09/09 03:10:02;;;;;;;1.50;1.00;;;;;;;14.94;100.00;96167.38;5052266;27;101949;-60
2022/09/09 03:12:29;;;;;;;0.80;0.80;;;;;;;14.98;100.00;96157.72;5047974;27;105112;-60
2022/09/09 03:14:56;;;;;;;0.80;0.80;;;;;;;14.99;100.00;96156.63;5029516;27;102074;-60
2022/09/09 03:17:24;;;;;;;0.93;0.80;;;;;;;14.99;100.00;96153.97;5028599;27;105350;-60
2022/09/09 03:19:58;;;;;;;1.87;0.83;;;;;;;14.99;100.00;96151.28;5028118;28;105946;-60
2022/09/09 03:22:26;;;;;;;1.10;1.00;;;;;;;15.02;100.00;96153.38;5028517;27;101921;-60
2022/09/09 03:24:54;;;;;;;1.90;0.90;;;;;;;15.05;100.00;96142.88;5047242;27;104367;-60
2022/09/09 03:27:26;;;;;;;1.20;1.10;;;;;;;15.08;100.00;96141.53;5051343;27;105645;-60
2022/09/09 03:29:54;;;;;;;1.37;0.90;;;;;;;15.10;100.00;96136.69;5041849;27;101812;-60
2022/09/09 03:32:25;;;;;;;0.93;0.87;;;;;;;15.04;100.00;96137.84;5035101;28;104922;-60
2022/09/09 03:34:53;;;;;;;0.93;0.93;;;;;;;15.05;100.00;96126.81;5049634;27;101892;-60
2022/09/09 03:37:22;;;;;;;1.73;1.00;;;;;;;15.01;100.00;96130.34;5052440;27;104804;-60
2022/09/09 03:39:50;;;;;;;1.90;1.20;;;;;;;15.01;100.00;96128.50;5033628;27;105084;-60
2022/09/09 03:42:19;;;;;;;1.73;0.90;;;;;;;15.03;100.00;96120.97;5031796;28;101828;-60
2022/09/09 03:44:51;;;;;;;2.97;1.03;;;;;;;14.97;100.00;96122.09;5033095;27;105176;-60
2022/09/09 03:50:52;;;;;;;1.13;0.90;;;;;;;14.90;100.00;96120.84;5031646;28;101967;-60
2022/09/09 03:53:24;;;;;;;1.80;0.97;;;;;;;14.94;100.00;96116.53;5029743;27;105308;-60
2022/09/09 03:55:54;;;;;;;0.87;0.87;;;;;;;14.98;100.00;96110.28;5034626;27;106076;-60
2022/09/09 03:58:23;;;;;;;1.83;0.90;;;;;;;15.02;100.00;96107.84;5011633;28;104707;-59
2022/09/09 04:00:56;;;;;;;1.23;0.90;;;;;;;14.97;100.00;96107.91;5011330;27;105743;-60
2022/09/09 04:03:24;;;;;;;1.17;1.00;;;;;;;14.93;100.00;96109.56;5027766;27;101875;-60
2022/09/09 04:06:03;;;;;;;0.97;0.90;;;;;;;14.83;100.00;96112.34;5051467;27;105407;-60
2022/09/09 04:08:32;;;;;;;1.27;0.80;;;;;;;14.84;100.00;96113.94;5050587;27;103760;-60
2022/09/09 04:11:01;;;;;;;1.10;0.90;;;;;;;14.86;100.00;96107.22;5051523;27;101910;-60
2022/09/09 04:13:29;;;;;;;1.27;0.80;;;;;;;14.88;100.00;96120.34;5043568;27;104856;-60
2022/09/09 04:16:15;;;;;;;0.93;0.83;;;;;;;14.90;100.00;96121.66;5030587;27;105142;-60
2022/09/09 04:18:44;;;;;;;4.47;0.90;;;;;;;14.89;100.00;96116.56;5034738;28;101837;-60
2022/09/09 04:21:12;;;;;;;1.30;1.20;;;;;;;14.91;100.00;96120.56;5031951;27;105751;-60
2022/09/09 04:23:40;;;;;;;1.03;1.03;;;;;;;14.94;100.00;96116.53;5032136;27;102395;-60
2022/09/09 04:27:01;;;;;;;1.87;1.10;;;;;;;14.94;100.00;96121.88;5032675;27;102288;-60
2022/09/09 04:29:28;;;;;;;1.50;0.93;;;;;;;14.94;100.00;96111.16;5030339;28;105514;-60
2022/09/09 04:31:56;;;;;;;2.27;1.00;;;;;;;14.96;100.00;96103.63;5037482;27;101896;-60
2022/09/09 04:34:23;;;;;;;0.70;0.70;;;;;;;14.98;100.00;96101.50;5036725;27;105792;-60
2022/09/09 04:37:02;;;;;;;0.90;0.90;;;;;;;14.95;100.00;96112.75;5029315;27;105416;-60
2022/09/09 04:39:30;;;;;;;1.40;1.30;;;;;;;14.93;100.00;96104.22;5031090;28;101800;-60
2022/09/09 04:42:01;;;;;;;1.17;1.10;;;;;;;14.84;100.00;96117.44;5045290;27;105171;-60
2022/09/09 04:44:29;;;;;;;0.90;0.90;;;;;;;14.88;100.00;96110.41;5031877;27;103454;-60
2022/09/09 04:47:05;;;;;;;1.57;0.80;;;;;;;14.91;100.00;96112.53;5049176;27;105640;-60
2022/09/09 04:49:43;;;;;;;1.90;0.90;;;;;;;14.97;100.00;96099.88;5050490;27;105955;-60
2022/09/09 04:52:12;;;;;;;2.60;1.13;;;;;;;14.95;100.00;96102.84;5050815;27;102018;-60
2022/09/09 04:54:40;;;;;;;1.53;0.83;;;;;;;15.00;100.00;96102.00;5050219;27;105724;-60
2022/09/09 04:57:12;;;;;;;0.90;0.90;;;;;;;15.03;100.00;96106.75;5050434;27;105494;-60
2022/09/09 04:59:40;;;;;;;3.03;0.87;;;;;;;15.03;100.00;96102.22;5010451;28;101909;-60
2022/09/09 05:02:08;;;;;;;1.47;1.00;;;;;;;15.03;100.00;96099.53;5013473;28;105082;-60
2022/09/09 05:04:35;;;;;;;1.80;0.97;;;;;;;15.02;100.00;96102.50;5049467;27;102179;-60
2022/09/09 05:07:34;;;;;;;1.23;1.10;;;;;;;15.03;100.00;96093.38;5050850;27;105626;-60
2022/09/09 05:10:05;;;;;;;2.03;1.03;;;;;;;15.07;100.00;96094.41;5009481;28;105422;-60
2022/09/09 05:12:33;;;;;;;0.90;0.90;;;;;;;15.07;100.00;96095.22;5015021;27;101878;-60
2022/09/09 05:15:00;;;;;;;1.80;1.17;;;;;;;15.10;100.00;96099.19;5050859;27;105410;-60
2022/09/09 05:17:35;;;;;;;1.63;1.30;;;;;;;15.10;100.00;96104.56;5049173;27;105608;-60
2022/09/09 05:20:08;;;;;;;1.30;1.30;;;;;;;15.15;100.00;96101.81;5050589;27;101971;-60
2022/09/09 05:22:36;;;;;;;2.87;2.57;;;;;;;15.16;100.00;96100.75;5050355;27;105625;-60
2022/09/09 05:25:05;;;;;;;2.13;1.93;;;;;;;15.19;100.00;96106.31;5036545;27;105930;-60
2022/09/09 05:27:56;;;;;;;3.03;2.50;;;;;;;15.22;100.00;96110.31;5030214;28;105209;-60
2022/09/09 05:30:26;;;;;;;4.00;3.70;;;;;;;15.22;100.00;96108.44;5029566;28;105723;-60
2022/09/09 05:32:53;;;;;;;5.27;3.53;;;;;;;15.23;100.00;96109.22;5029985;28;101859;-60
2022/09/09 05:35:20;;;;;;;3.80;2.17;;;;;;;15.16;100.00;96119.47;5030126;28;104202;-60
2022/09/09 05:37:47;;;;;;;1.47;1.20;;;;;;;15.11;100.00;96123.03;5029577;28;105626;-60
2022/09/09 05:40:16;;;;;;;1.50;1.20;;;;;;;15.18;100.00;96122.66;5030162;28;101674;-60
2022/09/09 05:42:43;;;;;;;2.30;1.10;;;;;;;15.25;100.00;96123.94;5029858;28;104992;-60
2022/09/09 05:45:11;;;;;;;2.23;1.00;;;;;;;15.36;100.00;96127.34;5029412;28;104319;-60
2022/09/09 05:47:39;;;;;;;4.47;1.30;;;;;;;15.49;100.00;96129.31;5033667;27;101952;-59
2022/09/09 05:50:10;;;;;;;1.23;1.10;;;;;;;15.48;100.00;96138.44;5029051;28;104448;-60
2022/09/09 05:52:37;;;;;;;1.70;0.90;;;;;;;15.56;100.00;96132.41;5029791;28;102229;-60
2022/09/09 05:55:07;;;;;;;2.07;0.93;;;;;;;15.57;100.00;96136.69;5029833;28;104748;-60
2022/09/09 05:57:42;;;;;;;1.80;1.37;;;;;;;15.67;100.00;96148.09;5028886;28;105556;-60
2022/09/09 06:00:12;;;;;;;1.23;0.90;;;;;;;15.75;100.00;96152.03;5029518;28;102291;-60
2022/09/09 06:02:41;;;;;;;0.93;0.90;;;;;;;15.81;100.00;96145.50;5027904;27;102183;-60
2022/09/09 06:05:11;;;;;;;2.47;1.20;;;;;;;15.83;100.00;96143.31;5029049;28;105145;-60
2022/09/09 06:08:01;;;;;;;0.83;0.83;;;;;;;15.85;100.00;96146.50;5029560;28;101952;-60
2022/09/09 06:10:28;;;;;;;1.10;1.00;;;;;;;15.83;100.00;96140.63;5032341;28;105158;-60
2022/09/09 06:12:57;;;;;;;2.17;1.30;;;;;;;15.77;100.00;96139.13;5029324;28;101901;-60
2022/09/09 06:15:32;;;;;;;1.20;0.97;;;;;;;15.78;100.00;96143.38;5029390;28;105343;-60
2022/09/09 06:17:59;;;;;;;1.97;1.20;;;;;;;15.78;100.00;96140.72;5039924;27;105372;-60
2022/09/09 06:20:36;;;;;;;2.37;1.30;;;;;;;15.80;100.00;96141.25;5029137;28;101944;-60
2022/09/09 06:23:05;;;;;;;3.63;1.00;;;;;;;15.83;100.00;96140.63;5015959;27;104172;-60
2022/09/09 06:25:40;;;;;;;1.27;1.17;;;;;;;15.84;100.00;96140.38;5011968;28;105515;-60
2022/09/09 06:28:09;;;;;;;2.03;1.00;;;;;;;15.84;100.00;96145.72;5035994;27;101845;-60
2022/09/09 06:30:36;;;;;;;1.10;1.00;;;;;;;15.89;100.00;96144.84;5049552;27;105140;-60
2022/09/09 06:33:04;;;;;;;3.07;1.20;;;;;;;15.88;100.00;96140.56;5043134;27;105461;-60
2022/09/09 06:35:54;;;;;;;1.23;0.80;;;;;;;15.88;100.00;96140.56;5039049;27;104714;-60
2022/09/09 06:38:22;;;;;;;1.03;1.00;;;;;;;15.88;100.00;96137.91;5037453;27;105482;-60
2022/09/09 06:40:52;;;;;;;3.00;0.87;;;;;;;15.88;100.00;96143.25;5049236;27;101904;-60
2022/09/09 06:43:21;;;;;;;2.80;0.80;;;;;;;15.68;100.00;96148.88;5049089;27;103475;-60
2022/09/09 06:45:56;;;;;;;1.53;1.00;;;;;;;15.67;100.00;96147.28;5048730;27;105426;-60
2022/09/09 06:48:25;;;;;;;1.13;0.90;;;;;;;15.60;100.00;96144.16;5049168;27;101794;-60
2022/09/09 06:51:13;;;;;;;0.87;0.77;;;;;;;15.52;100.00;96150.16;5037530;27;104719;-60
2022/09/09 06:53:43;;;;;;;1.10;0.83;;;;;;;15.55;100.00;96163.81;5008278;28;104879;-60
2022/09/09 06:56:41;;;;;;;1.23;0.80;;;;;;;15.53;100.00;96159.81;5014236;27;103872;-60
2022/09/09 06:59:14;;;;;;;1.33;0.80;;;;;;;15.52;100.00;96148.28;5041812;27;105318;-60
2022/09/09 07:01:43;;;;;;;2.63;0.90;;;;;;;15.55;100.00;96152.28;5033285;27;101800;-59
2022/09/09 07:04:14;;;;;;;2.37;0.90;;;;;;;15.50;100.00;96149.66;5034172;27;105476;-59
2022/09/09 07:06:46;;;;;;;2.00;0.90;;;;;;;15.57;100.00;96145.53;5052148;27;105042;-60
2022/09/09 07:09:17;;;;;;;1.13;0.90;;;;;;;15.66;100.00;96145.69;5049178;27;101952;-60
2022/09/09 07:11:50;;;;;;;1.17;0.77;;;;;;;15.84;100.00;96155.63;5032483;28;105092;-60
2022/09/09 07:14:21;;;;;;;3.03;0.77;;;;;;;15.80;100.00;96151.97;5047608;27;104965;-60
2022/09/09 07:17:20;;;;;;;2.20;0.97;;;;;;;15.95;100.00;96144.50;5056103;27;101871;-60
2022/09/09 07:19:57;;;;;;;1.27;0.77;;;;;;;16.15;100.00;96144.22;5025100;27;103070;-60
2022/09/09 07:22:24;;;;;;;0.90;0.90;;;;;;;16.22;100.00;96139.28;5052216;27;101916;-60
2022/09/09 07:24:52;;;;;;;0.80;0.80;;;;;;;16.36;100.00;96150.06;5052485;27;104823;-59
2022/09/09 07:27:19;;;;;;;1.03;0.93;;;;;;;16.41;100.00;96150.81;5051892;27;105395;-60
2022/09/09 07:29:50;;;;;;;2.93;0.97;;;;;;;16.47;100.00;96146.94;5044819;27;101996;-60
2022/09/09 07:32:19;;;;;;;0.90;0.70;;;;;;;16.57;100.00;96151.38;5033134;27;104945;-60
2022/09/09 07:34:47;;;;;;;1.97;0.77;;;;;;;16.69;100.00;96147.16;5031448;28;105393;-59
2022/09/09 07:37:37;;;;;;;3.30;1.03;;;;;;;16.81;100.00;96155.53;5032755;27;102252;-59
2022/09/09 07:40:05;;;;;;;1.40;1.30;;;;;;;16.85;100.00;96153.03;5023424;27;104049;-59
2022/09/09 07:42:33;;;;;;;1.33;1.00;;;;;;;16.86;100.00;96160.00;5035476;27;102183;-60
2022/09/09 07:45:01;;;;;;;2.47;1.20;;;;;;;16.74;100.00;96165.81;5052244;27;105040;-60
2022/09/09 07:47:35;;;;;;;2.23;1.10;;;;;;;16.75;100.00;96178.19;5049624;27;104738;-60
2022/09/09 07:53:26;;;;;;;1.40;1.00;;;;;;;16.57;100.00;96179.00;5033639;27;105514;-60
2022/09/09 07:56:36;;;;;;;1.20;1.10;;;;;;;16.54;100.00;96179.59;5031025;27;105234;-60
2022/09/09 07:59:06;;;;;;;1.80;0.93;;;;;;;16.51;100.00;96182.06;5031813;27;101805;-60
2022/09/09 08:01:39;;;;;;;1.00;1.00;;;;;;;16.57;100.00;96189.75;5051123;27;104863;-60
2022/09/09 08:04:08;;;;;;;1.13;1.03;;;;;;;16.64;100.00;96190.19;5046741;27;105501;-59
2022/09/09 08:06:42;;;;;;;1.10;1.00;;;;;;;16.71;100.00;96184.41;5031394;28;105338;-60
2022/09/09 08:09:11;;;;;;;1.83;1.17;;;;;;;16.63;100.00;96179.72;5030224;28;105189;-59
2022/09/09 08:11:41;;;;;;;1.73;1.50;;;;;;;16.49;100.00;96182.38;5031617;27;102150;-60
2022/09/09 08:14:09;;;;;;;1.13;1.03;;;;;;;16.44;100.00;96177.06;5020424;28;105636;-59
2022/09/09 08:16:42;;;;;;;1.47;0.90;;;;;;;16.41;100.00;96185.69;5030869;27;105239;-60
2022/09/09 08:19:15;;;;;;;0.70;0.70;;;;;;;16.35;100.00;96188.72;5036856;27;101929;-60
2022/09/09 08:21:44;;;;;;;1.53;0.70;;;;;;;16.27;100.00;96194.72;5011082;28;104520;-60
2022/09/09 08:24:13;;;;;;;1.10;0.77;;;;;;;16.36;100.00;96193.00;5017916;27;103993;-60
2022/09/09 08:26:49;;;;;;;1.60;0.70;;;;;;;16.37;100.00;96205.34;5034518;28;102014;-60
2022/09/09 08:29:19;;;;;;;2.17;0.90;;;;;;;16.50;100.00;96208.09;5048449;27;105173;-61
2022/09/09 08:31:51;;;;;;;3.17;0.90;;;;;;;16.60;100.00;96210.66;5051100;27;101932;-60
2022/09/09 08:34:20;;;;;;;0.80;0.80;;;;;;;16.47;100.00;96205.22;5031841;27;105969;-60
2022/09/09 08:36:57;;;;;;;0.67;0.60;;;;;;;16.51;100.00;96206.25;5048044;27;105296;-66
2022/09/09 08:39:32;;;;;;;0.80;0.67;;;;;;;16.58;100.00;96217.41;5034761;27;101959;-60
2022/09/09 08:42:25;;;;;;;2.53;0.80;;;;;;;16.52;100.00;96229.31;5030881;28;105355;-60
2022/09/09 08:45:15;;;;;;;0.87;0.80;;;;;;;16.36;100.00;96230.56;5030244;28;105222;-58
2022/09/09 08:47:56;;;;;;;1.77;1.00;;;;;;;16.37;100.00;96238.34;5036135;27;101814;-62
2022/09/09 08:50:38;;;;;;;1.83;1.20;;;;;;;16.20;100.00;96250.66;5043458;27;105370;-58
2022/09/09 08:53:19;;;;;;;1.57;1.40;;;;;;;16.09;100.00;96260.69;5039712;27;101864;-59
2022/09/09 08:55:52;;;;;;;1.97;1.10;;;;;;;16.24;100.00;96251.69;5035141;27;104834;-59
2022/09/09 08:58:29;;;;;;;0.90;0.90;;;;;;;16.17;100.00;96251.22;5034727;27;106217;-58
2022/09/09 09:01:26;;;;;;;1.90;0.90;;;;;;;16.22;100.00;96251.16;5044654;27;101847;-63
2022/09/09 09:04:04;;;;;;;2.27;0.93;;;;;;;16.32;100.00;96253.72;5051041;27;104787;-59
2022/09/09 09:06:51;;;;;;;1.70;1.03;;;;;;;16.43;100.00;96252.50;5048509;27;105501;-59
2022/09/09 09:09:26;;;;;;;1.87;0.87;;;;;;;16.41;100.00;96254.69;5033340;27;101800;-59
2022/09/09 09:12:00;;;;;;;1.80;1.00;;;;;;;16.46;100.00;96255.41;5030368;28;105395;-59
2022/09/09 09:14:34;;;;;;;1.30;0.93;;;;;;;16.45;100.00;96258.41;5032837;28;102011;-59
2022/09/09 09:17:20;;;;;;;0.90;0.77;;;;;;;16.48;100.00;96260.50;5033019;27;104878;-59
2022/09/09 09:23:23;;;;;;;1.67;0.90;;;;;;;16.37;100.00;96264.38;5030367;27;101780;-59
2022/09/09 09:26:26;;;;;;;2.00;0.80;;;;;;;16.37;100.00;96259.00;5040873;27;105113;-59
2022/09/09 09:28:57;;;;;;;1.80;0.90;;;;;;;16.39;100.00;96259.53;5033568;27;105541;-59
2022/09/09 09:31:26;;;;;;;1.37;0.80;;;;;;;16.35;100.00;96261.19;5030182;28;101903;-59
2022/09/09 09:33:55;;;;;;;0.80;0.80;;;;;;;16.26;100.00;96254.88;5030101;28;105453;-59
2022/09/09 09:36:35;;;;;;;1.10;0.90;;;;;;;16.25;100.00;96262.09;5050503;27;105482;-59
2022/09/09 09:39:06;;;;;;;1.23;0.90;;;;;;;16.25;100.00;96262.09;5050350;27;105724;-59
2022/09/09 09:41:37;;;;;;;0.97;0.90;;;;;;;16.23;100.00;96274.22;5049556;27;104175;-59
2022/09/09 09:44:07;;;;;;;1.97;0.80;;;;;;;16.28;100.00;96279.50;5050505;27;102088;-59
2022/09/09 09:46:43;;;;;;;0.90;0.90;;;;;;;16.34;100.00;96275.66;5049380;27;103570;-59
2022/09/09 09:49:52;;;;;;;1.70;1.03;;;;;;;16.26;100.00;96273.66;5049327;27;105184;-59
2022/09/09 09:52:23;;;;;;;1.27;0.80;;;;;;;16.24;100.00;96275.84;5047309;27;101861;-59
2022/09/09 09:54:54;;;;;;;1.37;1.00;;;;;;;16.31;100.00;96278.94;5029977;28;105056;-59
2022/09/09 09:57:40;;;;;;;0.80;0.80;;;;;;;16.14;100.00;96279.41;5028925;28;105488;-60
2022/09/09 10:00:16;;;;;;;1.00;0.90;;;;;;;16.14;100.00;96281.31;5032945;28;101817;-59
2022/09/09 10:02:48;;;;;;;1.37;1.20;;;;;;;16.20;100.00;96283.66;5028823;28;105109;-59
2022/09/09 10:05:22;;;;;;;1.73;0.80;;;;;;;16.12;100.00;96272.75;5029641;28;102144;-59
2022/09/09 10:08:03;;;;;;;0.90;0.90;;;;;;;16.17;100.00;96286.09;5029660;28;105397;-59
2022/09/09 10:10:42;;;;;;;1.87;0.90;;;;;;;16.26;100.00;96287.88;5030405;28;101674;-59
2022/09/09 10:13:17;;;;;;;1.17;1.00;;;;;;;16.28;100.00;96284.88;5030736;27;101718;-59
2022/09/09 10:15:51;;;;;;;1.13;0.90;;;;;;;16.06;100.00;96281.94;5030832;28;102478;-59
2022/09/09 10:18:41;;;;;;;2.07;1.20;;;;;;;16.01;100.00;96277.44;5028659;28;105676;-59
2022/09/09 10:21:22;;;;;;;2.03;1.33;;;;;;;16.02;100.00;96284.41;5046151;27;103454;-59
2022/09/09 10:24:06;;;;;;;1.47;1.13;;;;;;;16.04;100.00;96276.06;5054108;27;102567;-59
2022/09/09 10:26:55;;;;;;;1.37;1.20;;;;;;;16.09;100.00;96284.06;5049571;27;101914;-59
2022/09/09 10:29:52;;;;;;;1.50;1.40;;;;;;;16.07;100.00;96294.28;5050994;27;102334;-59
2022/09/09 10:32:37;;;;;;;2.23;1.70;;;;;;;16.01;100.00;96296.22;5048877;27;105632;-59
2022/09/09 10:35:11;;;;;;;2.27;1.40;;;;;;;16.12;100.00;96289.66;5040662;27;101885;-59
2022/09/09 10:38:06;;;;;;;2.20;1.77;;;;;;;16.27;100.00;96302.06;5030737;28;102590;-59
2022/09/09 10:40:36;;;;;;;2.73;1.60;;;;;;;16.31;100.00;96306.59;5029904;28;102708;-59
2022/09/09 10:43:21;;;;;;;4.20;1.40;;;;;;;16.35;100.00;96309.50;5028882;28;102493;-59
2022/09/09 10:46:03;;;;;;;2.27;1.50;;;;;;;16.29;100.00;96316.03;5028938;28;106243;-59
2022/09/09 10:48:48;;;;;;;2.00;1.80;;;;;;;16.26;100.00;96303.97;5033221;28;103111;-59
2022/09/09 10:51:29;;;;;;;1.93;1.60;;;;;;;16.22;100.00;96299.44;5030088;28;102406;-59
2022/09/09 10:54:19;;;;;;;3.50;1.77;;;;;;;16.43;100.00;96295.44;5029904;28;102762;-59
2022/09/09 10:56:56;;;;;;;2.53;1.70;;;;;;;16.54;100.00;96307.66;5010279;28;101709;-59
2022/09/09 10:59:29;;;;;;;1.83;1.73;;;;;;;16.46;100.00;96305.63;5010460;27;105175;-59
2022/09/09 11:02:02;;;;;;;4.20;1.83;;;;;;;16.62;100.00;96296.28;5048612;27;102705;-59
2022/09/09 11:04:34;;;;;;;3.90;2.03;;;;;;;16.61;100.00;96291.97;5029116;27;102791;-59
2022/09/09 11:07:29;;;;;;;3.10;1.73;;;;;;;16.76;100.00;96279.13;5030081;27;104257;-59
2022/09/09 11:10:01;;;;;;;1.60;1.50;;;;;;;16.85;100.00;96288.13;5025160;27;105382;-59
2022/09/09 11:12:30;;;;;;;1.60;1.50;;;;;;;16.74;100.00;96293.94;5032115;27;101778;-58
2022/09/09 11:15:03;;;;;;;1.63;1.40;;;;;;;16.74;100.00;96289.34;5029438;28;102557;-59
2022/09/09 11:18:11;;;;;;;1.70;1.60;;;;;;;16.86;100.00;96292.41;5034576;27;103083;-58
2022/09/09 11:20:48;;;;;;;2.00;1.63;;;;;;;16.90;100.00;96289.94;5044600;27;105655;-59
2022/09/09 11:23:22;;;;;;;1.50;1.30;;;;;;;16.92;100.00;96293.13;5028544;27;106462;-59
2022/09/09 11:25:58;;;;;;;3.20;1.73;;;;;;;16.98;100.00;96295.44;5030032;27;101955;-57
2022/09/09 11:28:37;;;;;;;6.03;1.80;;;;;;;17.24;100.00;96290.47;5030273;28;102253;-59
2022/09/09 11:31:21;;;;;;;1.77;1.67;;;;;;;17.11;100.00;96283.16;5041598;27;105426;-58
2022/09/09 11:34:15;;;;;;;1.97;1.60;;;;;;;17.08;100.00;96283.75;5037535;27;101838;-58
2022/09/09 11:37:02;;;;;;;2.47;1.90;;;;;;;17.29;100.00;96280.44;5045483;27;105849;-59
2022/09/09 11:39:58;;;;;;;3.20;1.60;;;;;;;17.23;100.00;96280.81;5046811;27;101963;-59
2022/09/09 11:42:26;;;;;;;9.13;2.30;;;;;;;17.69;100.00;96285.13;5050211;27;102259;-60
2022/09/09 11:44:54;;;;;;;1.73;1.40;;;;;;;17.61;100.00;96290.38;5047373;27;104327;-61
2022/09/09 11:47:29;;;;;;;3.57;1.83;;;;;;;17.84;100.00;96286.72;5052403;27;101806;-61
2022/09/09 11:50:12;;;;;;;6.23;2.20;;;;;;;18.18;100.00;96296.00;5040594;27;102310;-60
2022/09/09 11:52:42;;;;;;;2.47;1.63;;;;;;;17.87;100.00;96288.81;5030936;28;105591;-61
2022/09/09 11:55:11;;;;;;;3.33;1.93;;;;;;;17.86;100.00;96288.00;5031689;28;101897;-61
2022/09/09 11:57:39;;;;;;;4.13;1.67;;;;;;;17.53;100.00;96277.59;5035761;28;104327;-61
2022/09/09 12:00:09;;;;;;;2.27;1.83;;;;;;;17.29;100.00;96276.94;5033130;27;102137;-60
2022/09/09 12:02:50;;;;;;;1.50;1.40;;;;;;;17.43;100.00;96280.50;5033061;27;103059;-60
2022/09/09 12:05:19;;;;;;;1.67;1.37;;;;;;;17.60;100.00;96273.44;5032670;28;102634;-60